sensor_id;sensor_type;location;lat;lon;timestamp;P1;durP1;ratioP1;P2;durP2;ratioP2
69260;SDS011;56378;52.404;20.816;2023-03-01T00:01:04;49.63;;;18.52;;
69260;SDS011;56378;52.404;20.816;2023-03-01T00:03:34;55.30;;;19.08;;
69260;SDS011;56378;52.404;20.816;2023-03-01T00:06:01;54.37;;;20.20;;
69260;SDS011;56378;52.404;20.816;2023-03-01T00:08:27;58.40;;;19.65;;
69260;SDS011;56378;52.404;20.816;2023-03-01T00:11:01;52.83;;;18.42;;
69260;SDS011;56378;52.404;20.816;2023-03-01T00:13:42;52.85;;;18.17;;
69260;SDS011;56378;52.404;20.816;2023-03-01T00:16:13;53.35;;;19.02;;
69260;SDS011;56378;52.404;20.816;2023-03-01T00:18:59;54.30;;;18.17;;
69260;SDS011;56378;52.404;20.816;2023-03-01T00:21:25;54.67;;;18.25;;
69260;SDS011;56378;52.404;20.816;2023-03-01T00:23:52;43.92;;;17.13;;
69260;SDS011;56378;52.404;20.816;2023-03-01T00:26:18;48.17;;;18.85;;
69260;SDS011;56378;52.404;20.816;2023-03-01T00:28:46;51.80;;;17.85;;
69260;SDS011;56378;52.404;20.816;2023-03-01T00:31:13;47.93;;;17.20;;
69260;SDS011;56378;52.404;20.816;2023-03-01T00:33:41;52.75;;;18.85;;
69260;SDS011;56378;52.404;20.816;2023-03-01T00:36:08;50.72;;;17.92;;
69260;SDS011;56378;52.404;20.816;2023-03-01T00:38:41;48.10;;;17.35;;
69260;SDS011;56378;52.404;20.816;2023-03-01T00:41:10;54.15;;;18.73;;
69260;SDS011;56378;52.404;20.816;2023-03-01T00:43:40;50.80;;;17.60;;
69260;SDS011;56378;52.404;20.816;2023-03-01T00:46:07;50.85;;;18.75;;
69260;SDS011;56378;52.404;20.816;2023-03-01T00:48:35;57.47;;;19.13;;
69260;SDS011;56378;52.404;20.816;2023-03-01T00:51:11;55.88;;;18.58;;
69260;SDS011;56378;52.404;20.816;2023-03-01T00:53:43;51.65;;;18.05;;
69260;SDS011;56378;52.404;20.816;2023-03-01T00:56:10;52.00;;;18.20;;
69260;SDS011;56378;52.404;20.816;2023-03-01T00:58:38;49.28;;;17.98;;
69260;SDS011;56378;52.404;20.816;2023-03-01T01:01:11;52.22;;;18.88;;
69260;SDS011;56378;52.404;20.816;2023-03-01T01:03:45;47.65;;;17.75;;
69260;SDS011;56378;52.404;20.816;2023-03-01T01:06:20;53.55;;;19.00;;
69260;SDS011;56378;52.404;20.816;2023-03-01T01:08:49;49.60;;;16.80;;
69260;SDS011;56378;52.404;20.816;2023-03-01T01:11:15;48.97;;;17.27;;
69260;SDS011;56378;52.404;20.816;2023-03-01T01:13:41;51.35;;;17.67;;
69260;SDS011;56378;52.404;20.816;2023-03-01T01:16:08;52.60;;;18.38;;
69260;SDS011;56378;52.404;20.816;2023-03-01T01:18:34;49.97;;;18.40;;
69260;SDS011;56378;52.404;20.816;2023-03-01T01:21:07;47.60;;;18.05;;
69260;SDS011;56378;52.404;20.816;2023-03-01T01:23:34;50.60;;;17.98;;
69260;SDS011;56378;52.404;20.816;2023-03-01T01:26:05;50.63;;;17.80;;
69260;SDS011;56378;52.404;20.816;2023-03-01T01:28:33;47.30;;;17.08;;
69260;SDS011;56378;52.404;20.816;2023-03-01T01:30:59;51.15;;;16.60;;
69260;SDS011;56378;52.404;20.816;2023-03-01T01:33:25;50.08;;;18.10;;
69260;SDS011;56378;52.404;20.816;2023-03-01T01:35:51;49.35;;;17.80;;
69260;SDS011;56378;52.404;20.816;2023-03-01T01:38:17;48.17;;;17.33;;
69260;SDS011;56378;52.404;20.816;2023-03-01T01:40:44;41.05;;;15.90;;
69260;SDS011;56378;52.404;20.816;2023-03-01T01:43:45;45.90;;;15.95;;
69260;SDS011;56378;52.404;20.816;2023-03-01T01:46:23;45.50;;;17.50;;
69260;SDS011;56378;52.404;20.816;2023-03-01T01:49:32;47.22;;;16.95;;
69260;SDS011;56378;52.404;20.816;2023-03-01T01:52:35;49.30;;;16.92;;
69260;SDS011;56378;52.404;20.816;2023-03-01T01:57:37;48.50;;;17.77;;
69260;SDS011;56378;52.404;20.816;2023-03-01T02:00:12;46.93;;;18.17;;
69260;SDS011;56378;52.404;20.816;2023-03-01T02:02:43;53.40;;;18.02;;
69260;SDS011;56378;52.404;20.816;2023-03-01T02:07:42;53.03;;;17.90;;
69260;SDS011;56378;52.404;20.816;2023-03-01T02:10:09;54.10;;;18.85;;
69260;SDS011;56378;52.404;20.816;2023-03-01T02:12:35;50.03;;;16.90;;
69260;SDS011;56378;52.404;20.816;2023-03-01T02:15:02;51.13;;;17.63;;
69260;SDS011;56378;52.404;20.816;2023-03-01T02:17:28;51.78;;;18.70;;
69260;SDS011;56378;52.404;20.816;2023-03-01T02:22:32;52.47;;;17.93;;
69260;SDS011;56378;52.404;20.816;2023-03-01T02:27:56;50.65;;;17.20;;
69260;SDS011;56378;52.404;20.816;2023-03-01T02:30:45;55.80;;;17.27;;
69260;SDS011;56378;52.404;20.816;2023-03-01T02:33:31;48.90;;;16.95;;
69260;SDS011;56378;52.404;20.816;2023-03-01T02:36:01;52.60;;;17.97;;
69260;SDS011;56378;52.404;20.816;2023-03-01T02:38:31;48.95;;;17.63;;
69260;SDS011;56378;52.404;20.816;2023-03-01T02:40:57;51.08;;;18.10;;
69260;SDS011;56378;52.404;20.816;2023-03-01T02:43:26;42.88;;;16.23;;
69260;SDS011;56378;52.404;20.816;2023-03-01T02:45:57;54.55;;;18.15;;
69260;SDS011;56378;52.404;20.816;2023-03-01T02:48:24;48.57;;;18.27;;
69260;SDS011;56378;52.404;20.816;2023-03-01T02:56:18;52.35;;;17.42;;
69260;SDS011;56378;52.404;20.816;2023-03-01T02:58:44;53.60;;;17.93;;
69260;SDS011;56378;52.404;20.816;2023-03-01T03:01:13;51.42;;;17.27;;
69260;SDS011;56378;52.404;20.816;2023-03-01T03:03:40;45.75;;;17.23;;
69260;SDS011;56378;52.404;20.816;2023-03-01T03:06:06;48.10;;;17.70;;
69260;SDS011;56378;52.404;20.816;2023-03-01T03:08:32;48.40;;;17.50;;
69260;SDS011;56378;52.404;20.816;2023-03-01T03:10:58;43.78;;;16.48;;
69260;SDS011;56378;52.404;20.816;2023-03-01T03:13:23;47.90;;;18.20;;
69260;SDS011;56378;52.404;20.816;2023-03-01T03:15:54;49.25;;;16.60;;
69260;SDS011;56378;52.404;20.816;2023-03-01T03:18:21;50.10;;;18.50;;
69260;SDS011;56378;52.404;20.816;2023-03-01T03:20:48;50.55;;;18.40;;
69260;SDS011;56378;52.404;20.816;2023-03-01T03:23:17;56.40;;;19.33;;
69260;SDS011;56378;52.404;20.816;2023-03-01T03:25:50;59.73;;;20.47;;
69260;SDS011;56378;52.404;20.816;2023-03-01T03:28:15;52.78;;;18.73;;
69260;SDS011;56378;52.404;20.816;2023-03-01T03:30:42;52.17;;;19.52;;
69260;SDS011;56378;52.404;20.816;2023-03-01T03:33:09;62.08;;;19.52;;
69260;SDS011;56378;52.404;20.816;2023-03-01T03:35:46;56.58;;;19.38;;
69260;SDS011;56378;52.404;20.816;2023-03-01T03:38:14;50.53;;;18.27;;
69260;SDS011;56378;52.404;20.816;2023-03-01T03:40:45;50.95;;;18.45;;
69260;SDS011;56378;52.404;20.816;2023-03-01T03:43:13;54.95;;;20.05;;
69260;SDS011;56378;52.404;20.816;2023-03-01T03:45:41;48.67;;;19.02;;
69260;SDS011;56378;52.404;20.816;2023-03-01T03:48:09;50.08;;;18.38;;
69260;SDS011;56378;52.404;20.816;2023-03-01T03:50:35;53.43;;;18.10;;
69260;SDS011;56378;52.404;20.816;2023-03-01T03:53:03;53.00;;;18.50;;
69260;SDS011;56378;52.404;20.816;2023-03-01T03:55:32;51.85;;;18.08;;
69260;SDS011;56378;52.404;20.816;2023-03-01T03:57:58;52.78;;;18.75;;
69260;SDS011;56378;52.404;20.816;2023-03-01T04:00:31;52.85;;;18.48;;
69260;SDS011;56378;52.404;20.816;2023-03-01T04:03:05;52.33;;;18.03;;
69260;SDS011;56378;52.404;20.816;2023-03-01T04:05:31;55.55;;;18.67;;
69260;SDS011;56378;52.404;20.816;2023-03-01T04:07:57;51.38;;;19.00;;
69260;SDS011;56378;52.404;20.816;2023-03-01T04:10:26;55.65;;;18.40;;
69260;SDS011;56378;52.404;20.816;2023-03-01T04:12:59;51.20;;;19.60;;
69260;SDS011;56378;52.404;20.816;2023-03-01T04:15:26;52.73;;;19.27;;
69260;SDS011;56378;52.404;20.816;2023-03-01T04:17:53;54.28;;;19.02;;
69260;SDS011;56378;52.404;20.816;2023-03-01T04:20:21;51.83;;;19.00;;
69260;SDS011;56378;52.404;20.816;2023-03-01T04:22:52;59.20;;;19.95;;
69260;SDS011;56378;52.404;20.816;2023-03-01T04:25:22;53.22;;;18.30;;
69260;SDS011;56378;52.404;20.816;2023-03-01T04:27:48;54.90;;;19.70;;
69260;SDS011;56378;52.404;20.816;2023-03-01T04:30:14;56.45;;;19.70;;
69260;SDS011;56378;52.404;20.816;2023-03-01T04:32:40;59.70;;;20.27;;
69260;SDS011;56378;52.404;20.816;2023-03-01T04:35:06;57.10;;;19.60;;
69260;SDS011;56378;52.404;20.816;2023-03-01T04:37:32;56.10;;;18.05;;
69260;SDS011;56378;52.404;20.816;2023-03-01T04:39:57;49.27;;;17.70;;
69260;SDS011;56378;52.404;20.816;2023-03-01T04:42:23;47.38;;;17.98;;
69260;SDS011;56378;52.404;20.816;2023-03-01T04:44:49;48.67;;;18.93;;
69260;SDS011;56378;52.404;20.816;2023-03-01T04:47:16;53.75;;;18.95;;
69260;SDS011;56378;52.404;20.816;2023-03-01T04:49:42;52.15;;;18.10;;
69260;SDS011;56378;52.404;20.816;2023-03-01T04:52:08;58.90;;;18.27;;
69260;SDS011;56378;52.404;20.816;2023-03-01T04:54:34;49.90;;;17.67;;
69260;SDS011;56378;52.404;20.816;2023-03-01T04:57:01;52.17;;;17.90;;
69260;SDS011;56378;52.404;20.816;2023-03-01T04:59:27;51.63;;;18.02;;
69260;SDS011;56378;52.404;20.816;2023-03-01T05:01:54;54.60;;;16.42;;
69260;SDS011;56378;52.404;20.816;2023-03-01T05:04:24;54.20;;;19.33;;
69260;SDS011;56378;52.404;20.816;2023-03-01T05:06:49;51.17;;;17.60;;
69260;SDS011;56378;52.404;20.816;2023-03-01T05:09:16;45.50;;;16.90;;
69260;SDS011;56378;52.404;20.816;2023-03-01T05:11:42;47.63;;;17.88;;
69260;SDS011;56378;52.404;20.816;2023-03-01T05:14:08;50.10;;;17.67;;
69260;SDS011;56378;52.404;20.816;2023-03-01T05:16:35;46.95;;;17.02;;
69260;SDS011;56378;52.404;20.816;2023-03-01T05:19:02;59.78;;;18.40;;
69260;SDS011;56378;52.404;20.816;2023-03-01T05:21:39;55.20;;;19.05;;
69260;SDS011;56378;52.404;20.816;2023-03-01T05:24:25;47.65;;;18.08;;
69260;SDS011;56378;52.404;20.816;2023-03-01T05:26:51;49.83;;;18.70;;
69260;SDS011;56378;52.404;20.816;2023-03-01T05:29:18;49.92;;;18.27;;
69260;SDS011;56378;52.404;20.816;2023-03-01T05:31:50;46.08;;;16.88;;
69260;SDS011;56378;52.404;20.816;2023-03-01T05:34:18;49.40;;;16.77;;
69260;SDS011;56378;52.404;20.816;2023-03-01T05:36:48;47.40;;;16.53;;
69260;SDS011;56378;52.404;20.816;2023-03-01T05:39:18;51.10;;;17.88;;
69260;SDS011;56378;52.404;20.816;2023-03-01T05:41:48;47.72;;;16.90;;
69260;SDS011;56378;52.404;20.816;2023-03-01T05:44:17;50.72;;;16.73;;
69260;SDS011;56378;52.404;20.816;2023-03-01T05:46:43;42.67;;;15.67;;
69260;SDS011;56378;52.404;20.816;2023-03-01T05:49:09;50.70;;;17.75;;
69260;SDS011;56378;52.404;20.816;2023-03-01T05:51:36;50.08;;;16.77;;
69260;SDS011;56378;52.404;20.816;2023-03-01T05:54:01;46.43;;;17.10;;
69260;SDS011;56378;52.404;20.816;2023-03-01T05:56:27;42.95;;;16.27;;
69260;SDS011;56378;52.404;20.816;2023-03-01T05:58:54;49.95;;;17.88;;
69260;SDS011;56378;52.404;20.816;2023-03-01T06:01:19;45.80;;;16.90;;
69260;SDS011;56378;52.404;20.816;2023-03-01T06:03:45;47.25;;;16.95;;
69260;SDS011;56378;52.404;20.816;2023-03-01T06:06:11;50.97;;;17.23;;
69260;SDS011;56378;52.404;20.816;2023-03-01T06:08:37;50.17;;;17.67;;
69260;SDS011;56378;52.404;20.816;2023-03-01T06:11:02;48.07;;;18.23;;
69260;SDS011;56378;52.404;20.816;2023-03-01T06:13:28;52.53;;;19.20;;
69260;SDS011;56378;52.404;20.816;2023-03-01T06:15:54;84.60;;;29.03;;
69260;SDS011;56378;52.404;20.816;2023-03-01T06:18:21;74.18;;;26.70;;
69260;SDS011;56378;52.404;20.816;2023-03-01T06:20:52;79.43;;;29.23;;
69260;SDS011;56378;52.404;20.816;2023-03-01T06:23:19;83.30;;;29.90;;
69260;SDS011;56378;52.404;20.816;2023-03-01T06:25:44;64.20;;;24.92;;
69260;SDS011;56378;52.404;20.816;2023-03-01T06:28:10;60.90;;;23.15;;
69260;SDS011;56378;52.404;20.816;2023-03-01T06:30:36;58.50;;;21.27;;
69260;SDS011;56378;52.404;20.816;2023-03-01T06:33:02;49.45;;;19.23;;
69260;SDS011;56378;52.404;20.816;2023-03-01T06:35:30;50.85;;;19.05;;
69260;SDS011;56378;52.404;20.816;2023-03-01T06:37:57;51.60;;;20.25;;
69260;SDS011;56378;52.404;20.816;2023-03-01T06:40:24;51.58;;;19.52;;
69260;SDS011;56378;52.404;20.816;2023-03-01T06:42:50;48.75;;;18.17;;
69260;SDS011;56378;52.404;20.816;2023-03-01T06:45:17;49.07;;;18.63;;
69260;SDS011;56378;52.404;20.816;2023-03-01T06:47:44;48.53;;;17.90;;
69260;SDS011;56378;52.404;20.816;2023-03-01T06:50:09;43.10;;;16.50;;
69260;SDS011;56378;52.404;20.816;2023-03-01T06:52:36;49.38;;;16.58;;
69260;SDS011;56378;52.404;20.816;2023-03-01T06:55:02;46.00;;;17.83;;
69260;SDS011;56378;52.404;20.816;2023-03-01T06:57:28;45.22;;;16.80;;
69260;SDS011;56378;52.404;20.816;2023-03-01T06:59:54;45.83;;;17.03;;
69260;SDS011;56378;52.404;20.816;2023-03-01T07:02:20;42.80;;;17.45;;
69260;SDS011;56378;52.404;20.816;2023-03-01T07:04:46;43.47;;;17.45;;
69260;SDS011;56378;52.404;20.816;2023-03-01T07:07:13;45.60;;;17.90;;
69260;SDS011;56378;52.404;20.816;2023-03-01T07:09:39;40.20;;;17.58;;
69260;SDS011;56378;52.404;20.816;2023-03-01T07:12:05;47.27;;;18.33;;
69260;SDS011;56378;52.404;20.816;2023-03-01T07:14:31;43.80;;;17.17;;
69260;SDS011;56378;52.404;20.816;2023-03-01T07:16:56;43.72;;;17.55;;
69260;SDS011;56378;52.404;20.816;2023-03-01T07:19:22;44.03;;;17.80;;
69260;SDS011;56378;52.404;20.816;2023-03-01T07:21:48;41.10;;;18.30;;
69260;SDS011;56378;52.404;20.816;2023-03-01T07:24:14;39.97;;;17.77;;
69260;SDS011;56378;52.404;20.816;2023-03-01T07:26:40;38.87;;;17.93;;
69260;SDS011;56378;52.404;20.816;2023-03-01T07:29:07;38.90;;;17.52;;
69260;SDS011;56378;52.404;20.816;2023-03-01T07:31:34;43.00;;;18.63;;
69260;SDS011;56378;52.404;20.816;2023-03-01T07:34:00;45.28;;;18.95;;
69260;SDS011;56378;52.404;20.816;2023-03-01T07:36:26;41.22;;;18.15;;
69260;SDS011;56378;52.404;20.816;2023-03-01T07:38:52;39.97;;;17.67;;
69260;SDS011;56378;52.404;20.816;2023-03-01T07:41:18;42.15;;;18.10;;
69260;SDS011;56378;52.404;20.816;2023-03-01T07:43:43;44.17;;;18.87;;
69260;SDS011;56378;52.404;20.816;2023-03-01T07:46:09;39.47;;;17.13;;
69260;SDS011;56378;52.404;20.816;2023-03-01T07:48:35;48.63;;;21.15;;
69260;SDS011;56378;52.404;20.816;2023-03-01T07:51:01;44.67;;;18.83;;
69260;SDS011;56378;52.404;20.816;2023-03-01T07:53:29;43.58;;;17.13;;
69260;SDS011;56378;52.404;20.816;2023-03-01T07:56:03;38.67;;;17.52;;
69260;SDS011;56378;52.404;20.816;2023-03-01T07:58:30;40.50;;;16.83;;
69260;SDS011;56378;52.404;20.816;2023-03-01T08:01:00;40.83;;;17.23;;
69260;SDS011;56378;52.404;20.816;2023-03-01T08:03:27;39.75;;;17.17;;
69260;SDS011;56378;52.404;20.816;2023-03-01T08:05:53;37.90;;;16.52;;
69260;SDS011;56378;52.404;20.816;2023-03-01T08:08:19;36.70;;;17.77;;
69260;SDS011;56378;52.404;20.816;2023-03-01T08:10:45;38.28;;;17.02;;
69260;SDS011;56378;52.404;20.816;2023-03-01T08:13:10;33.70;;;16.10;;
69260;SDS011;56378;52.404;20.816;2023-03-01T08:15:36;36.10;;;16.33;;
69260;SDS011;56378;52.404;20.816;2023-03-01T08:18:02;36.53;;;16.20;;
69260;SDS011;56378;52.404;20.816;2023-03-01T08:20:28;35.90;;;16.30;;
69260;SDS011;56378;52.404;20.816;2023-03-01T08:22:53;39.27;;;17.20;;
69260;SDS011;56378;52.404;20.816;2023-03-01T08:25:19;36.35;;;16.63;;
69260;SDS011;56378;52.404;20.816;2023-03-01T08:27:45;37.00;;;16.30;;
69260;SDS011;56378;52.404;20.816;2023-03-01T08:30:11;36.60;;;16.35;;
69260;SDS011;56378;52.404;20.816;2023-03-01T08:32:37;39.90;;;17.50;;
69260;SDS011;56378;52.404;20.816;2023-03-01T08:35:03;39.50;;;18.00;;
69260;SDS011;56378;52.404;20.816;2023-03-01T08:37:29;36.70;;;16.73;;
69260;SDS011;56378;52.404;20.816;2023-03-01T08:39:57;37.35;;;17.35;;
69260;SDS011;56378;52.404;20.816;2023-03-01T08:42:24;38.03;;;17.48;;
69260;SDS011;56378;52.404;20.816;2023-03-01T08:44:49;38.87;;;18.17;;
69260;SDS011;56378;52.404;20.816;2023-03-01T08:47:15;37.42;;;16.80;;
69260;SDS011;56378;52.404;20.816;2023-03-01T08:49:41;35.97;;;17.27;;
69260;SDS011;56378;52.404;20.816;2023-03-01T08:52:08;38.25;;;17.58;;
69260;SDS011;56378;52.404;20.816;2023-03-01T08:54:33;36.83;;;17.55;;
69260;SDS011;56378;52.404;20.816;2023-03-01T08:57:01;37.67;;;17.73;;
69260;SDS011;56378;52.404;20.816;2023-03-01T08:59:27;38.88;;;17.58;;
69260;SDS011;56378;52.404;20.816;2023-03-01T09:01:55;35.42;;;16.35;;
69260;SDS011;56378;52.404;20.816;2023-03-01T09:04:21;35.40;;;15.05;;
69260;SDS011;56378;52.404;20.816;2023-03-01T09:06:47;34.27;;;16.53;;
69260;SDS011;56378;52.404;20.816;2023-03-01T09:09:14;34.95;;;17.88;;
69260;SDS011;56378;52.404;20.816;2023-03-01T09:11:42;38.05;;;17.73;;
69260;SDS011;56378;52.404;20.816;2023-03-01T09:14:08;34.13;;;16.33;;
69260;SDS011;56378;52.404;20.816;2023-03-01T09:16:34;35.80;;;17.00;;
69260;SDS011;56378;52.404;20.816;2023-03-01T09:19:02;37.37;;;16.37;;
69260;SDS011;56378;52.404;20.816;2023-03-01T09:21:28;36.83;;;17.35;;
69260;SDS011;56378;52.404;20.816;2023-03-01T09:23:55;33.65;;;16.50;;
69260;SDS011;56378;52.404;20.816;2023-03-01T09:26:22;33.00;;;15.60;;
69260;SDS011;56378;52.404;20.816;2023-03-01T09:28:49;33.17;;;16.30;;
69260;SDS011;56378;52.404;20.816;2023-03-01T09:31:18;36.58;;;15.52;;
69260;SDS011;56378;52.404;20.816;2023-03-01T09:33:46;33.17;;;16.73;;
69260;SDS011;56378;52.404;20.816;2023-03-01T09:36:14;34.65;;;15.80;;
69260;SDS011;56378;52.404;20.816;2023-03-01T09:38:44;30.17;;;15.25;;
69260;SDS011;56378;52.404;20.816;2023-03-01T09:43:44;29.00;;;15.05;;
69260;SDS011;56378;52.404;20.816;2023-03-01T09:46:19;27.75;;;14.40;;
69260;SDS011;56378;52.404;20.816;2023-03-01T09:49:03;33.17;;;15.77;;
69260;SDS011;56378;52.404;20.816;2023-03-01T09:51:33;53.50;;;23.17;;
69260;SDS011;56378;52.404;20.816;2023-03-01T09:54:01;37.73;;;16.67;;
69260;SDS011;56378;52.404;20.816;2023-03-01T09:56:36;34.80;;;15.95;;
69260;SDS011;56378;52.404;20.816;2023-03-01T10:04:51;29.73;;;15.70;;
69260;SDS011;56378;52.404;20.816;2023-03-01T10:07:47;32.03;;;16.00;;
69260;SDS011;56378;52.404;20.816;2023-03-01T10:10:26;31.73;;;14.60;;
69260;SDS011;56378;52.404;20.816;2023-03-01T10:12:57;30.50;;;14.80;;
69260;SDS011;56378;52.404;20.816;2023-03-01T10:15:34;28.17;;;13.95;;
69260;SDS011;56378;52.404;20.816;2023-03-01T10:18:16;26.63;;;14.00;;
69260;SDS011;56378;52.404;20.816;2023-03-01T10:23:49;26.20;;;14.00;;
69260;SDS011;56378;52.404;20.816;2023-03-01T10:29:02;29.83;;;15.43;;
69260;SDS011;56378;52.404;20.816;2023-03-01T10:36:52;30.45;;;15.10;;
69260;SDS011;56378;52.404;20.816;2023-03-01T10:39:23;27.08;;;14.48;;
69260;SDS011;56378;52.404;20.816;2023-03-01T10:42:04;27.52;;;14.63;;
69260;SDS011;56378;52.404;20.816;2023-03-01T10:44:40;26.15;;;14.18;;
69260;SDS011;56378;52.404;20.816;2023-03-01T10:47:18;30.97;;;15.57;;
69260;SDS011;56378;52.404;20.816;2023-03-01T10:49:59;29.50;;;16.17;;
69260;SDS011;56378;52.404;20.816;2023-03-01T10:52:28;27.10;;;16.17;;
69260;SDS011;56378;52.404;20.816;2023-03-01T10:57:48;25.30;;;14.98;;
69260;SDS011;56378;52.404;20.816;2023-03-01T11:00:15;25.07;;;14.60;;
69260;SDS011;56378;52.404;20.816;2023-03-01T11:02:48;27.83;;;15.00;;
69260;SDS011;56378;52.404;20.816;2023-03-01T11:05:17;31.05;;;15.40;;
69260;SDS011;56378;52.404;20.816;2023-03-01T11:07:49;25.98;;;14.15;;
69260;SDS011;56378;52.404;20.816;2023-03-01T11:10:18;26.00;;;14.07;;
69260;SDS011;56378;52.404;20.816;2023-03-01T11:12:45;26.33;;;14.60;;
69260;SDS011;56378;52.404;20.816;2023-03-01T11:15:21;28.98;;;14.52;;
69260;SDS011;56378;52.404;20.816;2023-03-01T11:17:49;27.33;;;15.40;;
69260;SDS011;56378;52.404;20.816;2023-03-01T11:20:18;25.90;;;14.53;;
69260;SDS011;56378;52.404;20.816;2023-03-01T11:22:50;30.05;;;15.85;;
69260;SDS011;56378;52.404;20.816;2023-03-01T11:25:27;28.08;;;15.40;;
69260;SDS011;56378;52.404;20.816;2023-03-01T11:27:58;27.60;;;15.57;;
69260;SDS011;56378;52.404;20.816;2023-03-01T11:30:27;26.95;;;15.50;;
69260;SDS011;56378;52.404;20.816;2023-03-01T11:36:06;28.90;;;16.05;;
69260;SDS011;56378;52.404;20.816;2023-03-01T11:38:41;30.48;;;15.60;;
69260;SDS011;56378;52.404;20.816;2023-03-01T11:41:13;29.92;;;15.55;;
69260;SDS011;56378;52.404;20.816;2023-03-01T11:55:04;28.63;;;14.85;;
69260;SDS011;56378;52.404;20.816;2023-03-01T12:03:33;29.45;;;14.93;;
69260;SDS011;56378;52.404;20.816;2023-03-01T12:05:57;29.60;;;13.68;;
69260;SDS011;56378;52.404;20.816;2023-03-01T12:08:54;27.20;;;14.82;;
69260;SDS011;56378;52.404;20.816;2023-03-01T12:11:52;28.75;;;14.35;;
69260;SDS011;56378;52.404;20.816;2023-03-01T12:25:53;29.73;;;15.50;;
69260;SDS011;56378;52.404;20.816;2023-03-01T12:31:16;31.05;;;15.13;;
69260;SDS011;56378;52.404;20.816;2023-03-01T12:42:07;33.20;;;15.17;;
69260;SDS011;56378;52.404;20.816;2023-03-01T12:44:50;26.65;;;14.02;;
69260;SDS011;56378;52.404;20.816;2023-03-01T12:50:24;28.73;;;14.85;;
69260;SDS011;56378;52.404;20.816;2023-03-01T12:52:56;29.50;;;14.25;;
69260;SDS011;56378;52.404;20.816;2023-03-01T12:55:31;27.00;;;14.00;;
69260;SDS011;56378;52.404;20.816;2023-03-01T12:58:21;24.95;;;13.32;;
69260;SDS011;56378;52.404;20.816;2023-03-01T13:23:04;30.37;;;13.30;;
69260;SDS011;56378;52.404;20.816;2023-03-01T13:25:59;45.22;;;23.48;;
69260;SDS011;56378;52.404;20.816;2023-03-01T13:31:06;24.75;;;13.20;;
69260;SDS011;56378;52.404;20.816;2023-03-01T13:33:44;28.08;;;14.02;;
69260;SDS011;56378;52.404;20.816;2023-03-01T13:36:13;35.47;;;16.63;;
69260;SDS011;56378;52.404;20.816;2023-03-01T13:39:13;33.90;;;16.05;;
69260;SDS011;56378;52.404;20.816;2023-03-01T13:41:53;27.60;;;12.25;;
69260;SDS011;56378;52.404;20.816;2023-03-01T13:46:52;24.77;;;12.30;;
69260;SDS011;56378;52.404;20.816;2023-03-01T13:49:35;23.67;;;12.47;;
69260;SDS011;56378;52.404;20.816;2023-03-01T13:52:30;22.33;;;12.68;;
69260;SDS011;56378;52.404;20.816;2023-03-01T13:57:59;23.65;;;11.88;;
69260;SDS011;56378;52.404;20.816;2023-03-01T14:03:13;27.20;;;13.53;;
69260;SDS011;56378;52.404;20.816;2023-03-01T14:05:40;22.52;;;11.30;;
69260;SDS011;56378;52.404;20.816;2023-03-01T14:08:18;24.90;;;12.15;;
69260;SDS011;56378;52.404;20.816;2023-03-01T14:13:32;25.55;;;14.05;;
69260;SDS011;56378;52.404;20.816;2023-03-01T14:18:45;23.85;;;12.18;;
69260;SDS011;56378;52.404;20.816;2023-03-01T14:21:22;23.65;;;11.90;;
69260;SDS011;56378;52.404;20.816;2023-03-01T14:23:50;24.25;;;12.63;;
69260;SDS011;56378;52.404;20.816;2023-03-01T14:26:19;24.17;;;11.87;;
69260;SDS011;56378;52.404;20.816;2023-03-01T14:28:46;27.10;;;12.18;;
69260;SDS011;56378;52.404;20.816;2023-03-01T14:31:32;25.92;;;12.00;;
69260;SDS011;56378;52.404;20.816;2023-03-01T14:34:02;25.20;;;12.20;;
69260;SDS011;56378;52.404;20.816;2023-03-01T14:36:29;24.60;;;12.05;;
69260;SDS011;56378;52.404;20.816;2023-03-01T14:38:56;24.37;;;13.10;;
69260;SDS011;56378;52.404;20.816;2023-03-01T14:41:31;24.60;;;12.70;;
69260;SDS011;56378;52.404;20.816;2023-03-01T14:46:31;26.70;;;13.38;;
69260;SDS011;56378;52.404;20.816;2023-03-01T14:49:06;28.85;;;14.27;;
69260;SDS011;56378;52.404;20.816;2023-03-01T14:51:38;28.30;;;14.43;;
69260;SDS011;56378;52.404;20.816;2023-03-01T14:57:14;26.50;;;13.40;;
69260;SDS011;56378;52.404;20.816;2023-03-01T14:59:41;28.77;;;14.55;;
69260;SDS011;56378;52.404;20.816;2023-03-01T15:02:09;30.48;;;14.93;;
69260;SDS011;56378;52.404;20.816;2023-03-01T15:04:42;27.97;;;14.40;;
69260;SDS011;56378;52.404;20.816;2023-03-01T15:07:12;28.23;;;14.30;;
69260;SDS011;56378;52.404;20.816;2023-03-01T15:09:39;26.48;;;13.48;;
69260;SDS011;56378;52.404;20.816;2023-03-01T15:14:52;27.17;;;12.82;;
69260;SDS011;56378;52.404;20.816;2023-03-01T15:17:20;26.37;;;12.70;;
69260;SDS011;56378;52.404;20.816;2023-03-01T15:20:03;29.55;;;13.63;;
69260;SDS011;56378;52.404;20.816;2023-03-01T15:22:31;26.40;;;13.82;;
69260;SDS011;56378;52.404;20.816;2023-03-01T15:24:57;29.48;;;13.85;;
69260;SDS011;56378;52.404;20.816;2023-03-01T15:27:23;27.83;;;13.37;;
69260;SDS011;56378;52.404;20.816;2023-03-01T15:29:55;26.73;;;13.38;;
69260;SDS011;56378;52.404;20.816;2023-03-01T15:32:26;27.63;;;12.98;;
69260;SDS011;56378;52.404;20.816;2023-03-01T15:34:57;33.17;;;14.50;;
69260;SDS011;56378;52.404;20.816;2023-03-01T15:37:49;27.30;;;13.43;;
69260;SDS011;56378;52.404;20.816;2023-03-01T15:40:22;25.95;;;12.80;;
69260;SDS011;56378;52.404;20.816;2023-03-01T15:42:58;27.67;;;13.23;;
69260;SDS011;56378;52.404;20.816;2023-03-01T15:45:27;29.73;;;13.98;;
69260;SDS011;56378;52.404;20.816;2023-03-01T15:47:55;30.83;;;12.65;;
69260;SDS011;56378;52.404;20.816;2023-03-01T15:50:29;31.33;;;13.07;;
69260;SDS011;56378;52.404;20.816;2023-03-01T15:52:55;27.52;;;12.43;;
69260;SDS011;56378;52.404;20.816;2023-03-01T15:55:24;29.88;;;13.80;;
69260;SDS011;56378;52.404;20.816;2023-03-01T16:00:38;36.22;;;16.75;;
69260;SDS011;56378;52.404;20.816;2023-03-01T16:03:04;45.33;;;18.87;;
69260;SDS011;56378;52.404;20.816;2023-03-01T16:05:32;43.45;;;18.85;;
69260;SDS011;56378;52.404;20.816;2023-03-01T16:07:59;49.05;;;22.73;;
69260;SDS011;56378;52.404;20.816;2023-03-01T16:10:26;55.97;;;23.48;;
69260;SDS011;56378;52.404;20.816;2023-03-01T16:12:52;61.40;;;26.02;;
69260;SDS011;56378;52.404;20.816;2023-03-01T16:15:19;60.17;;;26.97;;
69260;SDS011;56378;52.404;20.816;2023-03-01T16:17:46;56.05;;;23.95;;
69260;SDS011;56378;52.404;20.816;2023-03-01T16:20:12;48.00;;;21.55;;
69260;SDS011;56378;52.404;20.816;2023-03-01T16:22:40;39.88;;;18.75;;
69260;SDS011;56378;52.404;20.816;2023-03-01T16:25:10;36.60;;;16.90;;
69260;SDS011;56378;52.404;20.816;2023-03-01T16:27:37;36.95;;;16.25;;
69260;SDS011;56378;52.404;20.816;2023-03-01T16:30:04;31.98;;;15.20;;
69260;SDS011;56378;52.404;20.816;2023-03-01T16:32:31;32.15;;;13.98;;
69260;SDS011;56378;52.404;20.816;2023-03-01T16:34:57;30.70;;;14.30;;
69260;SDS011;56378;52.404;20.816;2023-03-01T16:37:22;29.23;;;13.33;;